| time (UTC) | temp F | wind direction | speed MPH | gust MPH | rain 1hr in | rain 24hr in | rain mn in | humidity % | barometer mb |
| 20260906002508 | 62 | 243 | 0.0 | 0.0 | 0.00 | 0.04 | 0.00 | 87 | 1022.0 |
| 20260906002009 | 62 | 259 | 0.0 | 0.0 | 0.00 | 0.04 | 0.00 | 87 | 1022.0 |
| 20260906001508 | 62 | 262 | 0.0 | 0.0 | 0.00 | 0.04 | 0.00 | 86 | 1022.0 |
| 20260906001012 | 62 | 263 | 0.0 | 0.0 | 0.00 | 0.04 | 0.00 | 87 | 1022.0 |
| 20260906000007 | 62 | 253 | 0.0 | 0.0 | 0.00 | 0.04 | 0.00 | 87 | 1022.0 |
| 20260905235009 | 62 | 263 | 0.0 | 0.0 | 0.00 | 0.04 | 0.00 | 88 | 1022.0 |
| 20260905234008 | 62 | 272 | 0.0 | 0.0 | 0.00 | 0.04 | 0.00 | 88 | 1022.0 |
| 20260905233510 | 62 | 280 | 0.0 | 0.0 | 0.00 | 0.04 | 0.00 | 88 | 1022.0 |
| 20260905233010 | 62 | 275 | 0.0 | 0.0 | 0.00 | 0.04 | 0.00 | 88 | 1022.0 |
| 20260905232508 | 62 | 253 | 0.0 | 0.0 | 0.00 | 0.04 | 0.00 | 88 | 1022.0 |
| 20260905231509 | 62 | 263 | 0.0 | 0.0 | 0.00 | 0.04 | 0.00 | 88 | 1022.0 |
| 20260905231010 | 62 | 270 | 0.0 | 0.0 | 0.00 | 0.04 | 0.00 | 88 | 1022.0 |
| 20260905230011 | 62 | 285 | 0.0 | 0.0 | 0.00 | 0.04 | 0.00 | 88 | 1022.0 |
| 20260905224509 | 62 | 251 | 0.0 | 0.0 | 0.00 | 0.04 | 0.04 | 89 | 1022.0 |
| 20260905224008 | 62 | 264 | 0.0 | 0.0 | 0.00 | 0.04 | 0.04 | 89 | 1022.0 |
| 20260905223010 | 62 | 275 | 0.0 | 0.0 | 0.00 | 0.04 | 0.04 | 89 | 1022.0 |
| 20260905222514 | 61 | 274 | 0.0 | 0.0 | 0.00 | 0.04 | 0.04 | 90 | 1022.0 |
| 20260905222010 | 61 | 259 | 0.0 | 0.0 | 0.00 | 0.04 | 0.04 | 90 | 1022.0 |
| 20260905221509 | 61 | 261 | 0.0 | 0.0 | 0.00 | 0.04 | 0.04 | 90 | 1022.0 |
| 20260905220008 | 61 | 292 | 0.0 | 0.0 | 0.00 | 0.04 | 0.04 | 89 | 1022.0 |
| 20260905215510 | 61 | 255 | 0.0 | 0.0 | 0.00 | 0.04 | 0.04 | 89 | 1022.0 |
| 20260905215008 | 61 | 254 | 0.0 | 0.0 | 0.00 | 0.04 | 0.04 | 89 | 1022.0 |
| 20260905214010 | 61 | 266 | 0.0 | 0.0 | 0.00 | 0.04 | 0.04 | 88 | 1022.0 |
| 20260905213512 | 61 | 259 | 0.0 | 0.0 | 0.00 | 0.04 | 0.04 | 88 | 1022.0 |
| 20260905213009 | 61 | 248 | 0.0 | 0.0 | 0.00 | 0.04 | 0.04 | 87 | 1022.0 |
| 20260905211008 | 62 | 256 | 0.0 | 0.0 | 0.00 | 0.04 | 0.04 | 86 | 1022.0 |
| 20260905210008 | 62 | 261 | 0.0 | 0.0 | 0.00 | 0.04 | 0.04 | 86 | 1022.0 |
| 20260905205508 | 62 | 270 | 0.0 | 0.0 | 0.00 | 0.04 | 0.04 | 85 | 1022.0 |
| 20260905205007 | 62 | 255 | 0.0 | 0.0 | 0.00 | 0.04 | 0.04 | 85 | 1021.0 |
| 20260905204508 | 62 | 260 | 0.0 | 0.0 | 0.00 | 0.04 | 0.04 | 84 | 1021.0 |
| 20260905204008 | 63 | 252 | 0.0 | 0.0 | 0.00 | 0.04 | 0.04 | 84 | 1021.0 |
| 20260905203008 | 63 | 257 | 0.0 | 0.0 | 0.00 | 0.04 | 0.04 | 83 | 1022.0 |
| 20260905202509 | 63 | 254 | 0.0 | 0.0 | 0.00 | 0.04 | 0.04 | 83 | 1022.0 |
| 20260905202008 | 63 | 292 | 0.0 | 0.0 | 0.00 | 0.04 | 0.04 | 83 | 1021.0 |
| 20260905201508 | 63 | 292 | 0.0 | 0.0 | 0.00 | 0.04 | 0.04 | 83 | 1021.0 |
| 20260905200008 | 63 | 292 | 0.0 | 0.0 | 0.00 | 0.04 | 0.04 | 83 | 1021.0 |
| 20260905195508 | 63 | 298 | 0.0 | 0.0 | 0.00 | 0.04 | 0.04 | 83 | 1021.0 |
| 20260905195009 | 63 | 298 | 0.0 | 0.0 | 0.00 | 0.04 | 0.04 | 83 | 1020.0 |
| 20260905193509 | 63 | 278 | 0.0 | 0.0 | 0.00 | 0.04 | 0.04 | 83 | 1021.0 |
| 20260905193011 | 63 | 267 | 0.0 | 0.0 | 0.00 | 0.04 | 0.04 | 82 | 1021.0 |
| 20260905192507 | 64 | 253 | 0.0 | 0.0 | 0.00 | 0.04 | 0.04 | 82 | 1021.0 |
| 20260905191508 | 64 | 270 | 0.0 | 0.0 | 0.00 | 0.04 | 0.04 | 82 | 1020.0 |
| 20260905191008 | 64 | 270 | 0.0 | 0.0 | 0.00 | 0.04 | 0.04 | 83 | 1020.0 |
| 20260905190010 | 64 | 287 | 0.0 | 0.0 | 0.00 | 0.04 | 0.04 | 82 | 1020.0 |
| 20260905185512 | 65 | 288 | 0.0 | 0.0 | 0.00 | 0.04 | 0.04 | 81 | 1020.0 |
| 20260905184011 | 65 | 299 | 0.0 | 0.0 | 0.00 | 0.04 | 0.04 | 80 | 1020.0 |
| 20260905183508 | 65 | 300 | 0.0 | 0.0 | 0.00 | 0.04 | 0.04 | 80 | 1021.0 |
| 20260905183009 | 65 | 270 | 0.0 | 0.0 | 0.00 | 0.04 | 0.04 | 80 | 1021.0 |
| 20260905181511 | 66 | 249 | 0.0 | 0.0 | 0.01 | 0.04 | 0.04 | 79 | 1020.0 |
| 20260905181008 | 66 | 257 | 0.0 | 0.0 | 0.01 | 0.04 | 0.04 | 78 | 1020.0 |
| 20260905180008 | 66 | 251 | 0.0 | 0.0 | 0.03 | 0.04 | 0.04 | 78 | 1020.0 |
| 20260905175511 | 66 | 251 | 0.0 | 0.0 | 0.04 | 0.04 | 0.04 | 78 | 1020.0 |
| 20260905175008 | 66 | 248 | 0.0 | 0.0 | 0.04 | 0.04 | 0.04 | 77 | 1019.0 |
| 20260905174510 | 66 | 251 | 0.0 | 0.0 | 0.04 | 0.04 | 0.04 | 75 | 1019.0 |
| 20260905174007 | 67 | 248 | 0.0 | 0.0 | 0.04 | 0.04 | 0.04 | 74 | 1019.0 |
| 20260905173512 | 67 | 257 | 0.0 | 0.0 | 0.04 | 0.04 | 0.04 | 73 | 1019.0 |
| 20260905172508 | 67 | 248 | 0.0 | 0.0 | 0.03 | 0.03 | 0.03 | 71 | 1019.0 |
| 20260905172009 | 68 | 253 | 0.0 | 0.0 | 0.03 | 0.03 | 0.03 | 70 | 1019.0 |
| 20260905171511 | 68 | 250 | 0.0 | 0.0 | 0.03 | 0.03 | 0.03 | 67 | 1019.0 |
| 20260905170010 | 70 | 272 | 0.0 | 0.0 | 0.01 | 0.01 | 0.01 | 60 | 1019.0 |
| 20260905165510 | 71 | 271 | 0.0 | 0.0 | 0.00 | 0.00 | 0.00 | 52 | 1019.0 |
| 20260905165010 | 71 | 267 | 0.0 | 0.0 | 0.00 | 0.00 | 0.00 | 48 | 1019.0 |
| 20260905164509 | 72 | 275 | 0.0 | 0.0 | 0.00 | 0.00 | 0.00 | 46 | 1019.0 |
| 20260905164009 | 72 | 257 | 0.0 | 0.0 | 0.00 | 0.00 | 0.00 | 45 | 1019.0 |
| 20260905163008 | 72 | 282 | 0.0 | 0.0 | 0.00 | 0.00 | 0.00 | 45 | 1019.0 |
| 20260905162510 | 72 | 252 | 0.0 | 0.0 | 0.00 | 0.00 | 0.00 | 45 | 1019.0 |
| 20260905162008 | 72 | 256 | 0.0 | 0.0 | 0.00 | 0.00 | 0.00 | 44 | 1019.0 |
| 20260905161010 | 72 | 275 | 0.0 | 0.0 | 0.00 | 0.00 | 0.00 | 44 | 1019.0 |
| 20260905160010 | 72 | 259 | 0.0 | 0.0 | 0.00 | 0.00 | 0.00 | 44 | 1019.0 |
| 20260905155511 | 72 | 276 | 0.0 | 0.0 | 0.00 | 0.00 | 0.00 | 44 | 1019.0 |
| 20260905154510 | 72 | 295 | 0.0 | 0.0 | 0.00 | 0.00 | 0.00 | 43 | 1019.0 |
| 20260905154011 | 72 | 277 | 0.0 | 0.0 | 0.00 | 0.00 | 0.00 | 43 | 1019.0 |
| 20260905153509 | 72 | 295 | 0.0 | 0.0 | 0.00 | 0.00 | 0.00 | 44 | 1019.0 |
| 20260905153007 | 72 | 297 | 0.0 | 0.0 | 0.00 | 0.00 | 0.00 | 43 | 1019.0 |
| 20260905152008 | 72 | 292 | 0.0 | 0.0 | 0.00 | 0.00 | 0.00 | 43 | 1019.0 |
| 20260905151507 | 72 | 292 | 0.0 | 0.0 | 0.00 | 0.00 | 0.00 | 43 | 1019.0 |
| 20260905145510 | 73 | 269 | 0.0 | 0.0 | 0.00 | 0.00 | 0.00 | 42 | 1018.0 |
| 20260905145011 | 73 | 273 | 0.0 | 0.0 | 0.00 | 0.00 | 0.00 | 42 | 1018.0 |
| 20260905144508 | 73 | 275 | 0.0 | 0.0 | 0.00 | 0.00 | 0.00 | 41 | 1018.0 |
| 20260905143509 | 73 | 332 | 0.0 | 0.0 | 0.00 | 0.00 | 0.00 | 42 | 1019.0 |
| 20260905143010 | 73 | 291 | 0.0 | 0.0 | 0.00 | 0.00 | 0.00 | 41 | 1019.0 |
| 20260905142010 | 74 | 303 | 0.0 | 0.0 | 0.00 | 0.00 | 0.00 | 40 | 1019.0 |
| 20260905141507 | 74 | 298 | 0.0 | 0.0 | 0.00 | 0.00 | 0.00 | 38 | 1019.0 |
| 20260905140008 | 76 | 323 | 0.0 | 0.0 | 0.00 | 0.00 | 0.00 | 36 | 1018.0 |
| 20260905135511 | 76 | 353 | 0.0 | 0.0 | 0.00 | 0.00 | 0.00 | 36 | 1018.0 |
| 20260905135011 | 77 | 291 | 0.0 | 0.0 | 0.00 | 0.00 | 0.00 | 37 | 1019.0 |
| 20260905134509 | 78 | 292 | 0.0 | 0.0 | 0.00 | 0.00 | 0.00 | 36 | 1019.0 |
| 20260905134009 | 79 | 321 | 0.0 | 0.0 | 0.00 | 0.00 | 0.00 | 34 | 1019.0 |
| 20260905133511 | 81 | 321 | 0.0 | 0.0 | 0.00 | 0.00 | 0.00 | 31 | 1018.0 |
| 20260905133008 | 82 | 3 | 0.0 | 0.0 | 0.00 | 0.00 | 0.00 | 30 | 1018.0 |
| 20260905132008 | 83 | 346 | 0.0 | 0.0 | 0.00 | 0.00 | 0.00 | 30 | 1018.0 |
| 20260905131510 | 83 | 317 | 0.0 | 0.0 | 0.00 | 0.00 | 0.00 | 30 | 1018.0 |
| 20260905131010 | 84 | 315 | 0.0 | 0.0 | 0.00 | 0.00 | 0.00 | 29 | 1018.0 |
| 20260905130010 | 85 | 342 | 0.0 | 0.0 | 0.00 | 0.00 | 0.00 | 29 | 1018.0 |
| 20260905125508 | 86 | 341 | 0.0 | 0.0 | 0.00 | 0.00 | 0.00 | 29 | 1018.0 |
| 20260905125009 | 86 | 335 | 0.0 | 0.0 | 0.00 | 0.00 | 0.00 | 28 | 1018.0 |
| 20260905124508 | 87 | 311 | 0.0 | 0.0 | 0.00 | 0.00 | 0.00 | 28 | 1018.0 |
| 20260905124007 | 87 | 345 | 0.0 | 0.0 | 0.00 | 0.00 | 0.00 | 28 | 1018.0 |
| 20260905123510 | 87 | 331 | 0.0 | 0.0 | 0.00 | 0.00 | 0.00 | 28 | 1018.0 |
| 20260905123009 | 87 | 333 | 0.0 | 0.0 | 0.00 | 0.00 | 0.00 | 28 | 1018.0 |
| 20260905122510 | 87 | 327 | 0.0 | 0.0 | 0.00 | 0.00 | 0.00 | 28 | 1018.0 |
| 20260905122008 | 87 | 317 | 0.0 | 0.0 | 0.00 | 0.00 | 0.00 | 28 | 1018.0 |
| 20260905121508 | 88 | 322 | 0.0 | 0.0 | 0.00 | 0.00 | 0.00 | 28 | 1018.0 |
| 20260905120008 | 89 | 297 | 0.0 | 0.0 | 0.00 | 0.00 | 0.00 | 28 | 1018.0 |
| 20260905115008 | 89 | 309 | 0.0 | 0.0 | 0.00 | 0.00 | 0.00 | 29 | 1018.0 |
| 20260905114508 | 89 | 334 | 0.0 | 0.0 | 0.00 | 0.00 | 0.00 | 29 | 1018.0 |
| 20260905114011 | 89 | 317 | 0.0 | 0.0 | 0.00 | 0.00 | 0.00 | 29 | 1018.0 |
| 20260905113511 | 89 | 343 | 0.0 | 0.0 | 0.00 | 0.00 | 0.00 | 29 | 1018.0 |
| 20260905113008 | 89 | 303 | 0.0 | 0.0 | 0.00 | 0.00 | 0.00 | 29 | 1018.0 |
| 20260905112509 | 89 | 327 | 0.0 | 0.0 | 0.00 | 0.00 | 0.00 | 29 | 1018.0 |
| 20260905112009 | 88 | 309 | 0.0 | 0.0 | 0.00 | 0.00 | 0.00 | 29 | 1018.0 |
| 20260905111509 | 88 | 325 | 0.0 | 0.0 | 0.00 | 0.00 | 0.00 | 30 | 1018.0 |
| 20260905110010 | 87 | 319 | 0.0 | 0.0 | 0.00 | 0.00 | 0.00 | 30 | 1018.0 |
| 20260905105511 | 87 | 349 | 0.0 | 0.0 | 0.00 | 0.00 | 0.00 | 30 | 1018.0 |
| 20260905105008 | 87 | 326 | 0.0 | 0.0 | 0.00 | 0.00 | 0.00 | 30 | 1018.0 |
| 20260905104508 | 87 | 305 | 0.0 | 0.0 | 0.00 | 0.00 | 0.00 | 31 | 1018.0 |
| 20260905104008 | 87 | 335 | 0.0 | 0.0 | 0.00 | 0.00 | 0.00 | 31 | 1018.0 |
| 20260905103509 | 86 | 345 | 0.0 | 0.0 | 0.00 | 0.00 | 0.00 | 31 | 1018.0 |
| 20260905103007 | 86 | 350 | 0.0 | 0.0 | 0.00 | 0.00 | 0.00 | 32 | 1018.0 |
| 20260905102508 | 85 | 337 | 0.0 | 0.0 | 0.00 | 0.00 | 0.00 | 33 | 1018.0 |
| 20260905102008 | 85 | 353 | 0.0 | 0.0 | 0.00 | 0.00 | 0.00 | 35 | 1018.0 |
| 20260905101009 | 85 | 335 | 0.0 | 0.0 | 0.00 | 0.00 | 0.00 | 35 | 1018.0 |
| 20260905100008 | 87 | 334 | 0.0 | 0.0 | 0.00 | 0.00 | 0.00 | 34 | 1018.0 |
| 20260905095507 | 88 | 334 | 0.0 | 0.0 | 0.00 | 0.00 | 0.00 | 34 | 1018.0 |
| 20260905095007 | 88 | 326 | 0.0 | 0.0 | 0.00 | 0.00 | 0.00 | 33 | 1017.0 |
| 20260905094510 | 89 | 305 | 0.0 | 0.0 | 0.00 | 0.00 | 0.00 | 33 | 1017.0 |
| 20260905094008 | 89 | 338 | 0.0 | 0.0 | 0.00 | 0.00 | 0.00 | 33 | 1017.0 |
| 20260905093510 | 90 | 345 | 0.0 | 0.0 | 0.00 | 0.00 | 0.00 | 32 | 1017.0 |
| 20260905093016 | 90 | 327 | 0.0 | 0.0 | 0.00 | 0.00 | 0.00 | 32 | 1017.0 |
| 20260905092509 | 90 | 332 | 0.0 | 0.0 | 0.00 | 0.00 | 0.00 | 33 | 1017.0 |
| 20260905092008 | 90 | 336 | 0.0 | 0.0 | 0.00 | 0.00 | 0.00 | 33 | 1017.0 |
| 20260905091511 | 90 | 357 | 0.0 | 0.0 | 0.00 | 0.00 | 0.00 | 33 | 1017.0 |
| 20260905091008 | 90 | 292 | 0.0 | 0.0 | 0.00 | 0.00 | 0.00 | 33 | 1017.0 |
| 20260905084511 | 89 | 305 | 0.0 | 0.0 | 0.00 | 0.00 | 0.00 | 34 | 1016.0 |
| 20260905083509 | 89 | 289 | 0.0 | 0.0 | 0.00 | 0.00 | 0.00 | 34 | 1016.0 |
| 20260905083009 | 89 | 306 | 0.0 | 0.0 | 0.00 | 0.00 | 0.00 | 35 | 1016.0 |
| 20260905082514 | 88 | 316 | 0.0 | 0.0 | 0.00 | 0.00 | 0.00 | 35 | 1016.0 |
| 20260905082009 | 88 | 295 | 0.0 | 0.0 | 0.00 | 0.00 | 0.00 | 35 | 1017.0 |
| 20260905081010 | 87 | 292 | 0.0 | 0.0 | 0.00 | 0.00 | 0.00 | 36 | 1017.0 |
| 20260905080011 | 86 | 288 | 0.0 | 0.0 | 0.00 | 0.00 | 0.00 | 38 | 1016.0 |
| 20260905075508 | 86 | 271 | 0.0 | 0.0 | 0.00 | 0.00 | 0.00 | 38 | 1016.0 |
| 20260905075010 | 85 | 246 | 0.0 | 0.0 | 0.00 | 0.00 | 0.00 | 39 | 1015.0 |
| 20260905074013 | 84 | 261 | 0.0 | 0.0 | 0.00 | 0.00 | 0.00 | 39 | 1015.0 |
| 20260905073010 | 83 | 257 | 0.0 | 0.0 | 0.00 | 0.00 | 0.00 | 40 | 1015.0 |
| 20260905071511 | 82 | 254 | 0.0 | 0.0 | 0.00 | 0.00 | 0.00 | 42 | 1015.0 |
| 20260905071011 | 81 | 227 | 0.0 | 0.0 | 0.00 | 0.00 | 0.00 | 43 | 1015.0 |
| 20260905070013 | 79 | 243 | 0.0 | 0.0 | 0.00 | 0.00 | 0.00 | 44 | 1015.0 |
| 20260905065015 | 78 | 233 | 0.0 | 0.0 | 0.00 | 0.00 | 0.00 | 45 | 1015.0 |
| 20260905064515 | 78 | 261 | 0.0 | 0.0 | 0.00 | 0.00 | 0.00 | 47 | 1015.0 |
| 20260905063524 | 76 | 243 | 0.0 | 0.0 | 0.00 | 0.00 | 0.00 | 48 | 1015.0 |
| 20260905063019 | 76 | 228 | 0.0 | 0.0 | 0.00 | 0.00 | 0.00 | 49 | 1015.0 |
| 20260905062521 | 75 | 243 | 0.0 | 0.0 | 0.00 | 0.00 | 0.00 | 49 | 1015.0 |
| 20260905062016 | 75 | 201 | 0.0 | 0.0 | 0.00 | 0.00 | 0.00 | 50 | 1015.0 |
| 20260905061514 | 74 | 197 | 0.0 | 0.0 | 0.00 | 0.00 | 0.00 | 51 | 1015.0 |
| 20260905061010 | 74 | 234 | 0.0 | 0.0 | 0.00 | 0.00 | 0.00 | 51 | 1015.0 |
| 20260905060011 | 73 | 218 | 0.0 | 0.0 | 0.00 | 0.00 | 0.00 | 53 | 1014.0 |
| 20260905055512 | 72 | 178 | 0.0 | 0.0 | 0.00 | 0.00 | 0.00 | 53 | 1014.0 |
| 20260905055011 | 72 | 180 | 0.0 | 0.0 | 0.00 | 0.00 | 0.00 | 53 | 1014.0 |
| 20260905054510 | 71 | 223 | 0.0 | 0.0 | 0.00 | 0.00 | 0.00 | 54 | 1014.0 |
| 20260905054013 | 71 | 221 | 0.0 | 0.0 | 0.00 | 0.00 | 0.00 | 54 | 1014.0 |
| 20260905053512 | 71 | 204 | 0.0 | 0.0 | 0.00 | 0.00 | 0.00 | 54 | 1014.0 |
| 20260905053010 | 71 | 175 | 0.0 | 0.0 | 0.00 | 0.00 | 0.00 | 54 | 1014.0 |
| 20260905052011 | 70 | 171 | 0.0 | 0.0 | 0.00 | 0.00 | 0.00 | 54 | 1014.0 |
| 20260905051511 | 70 | 198 | 0.0 | 0.0 | 0.00 | 0.00 | 0.00 | 54 | 1014.0 |
| 20260905051011 | 69 | 178 | 0.0 | 0.0 | 0.00 | 0.00 | 0.00 | 54 | 1014.0 |
| 20260905050011 | 69 | 166 | 0.0 | 0.0 | 0.00 | 0.00 | 0.00 | 53 | 1014.0 |
| 20260905045512 | 69 | 169 | 0.0 | 0.0 | 0.00 | 0.00 | 0.00 | 53 | 1014.0 |
| 20260905045012 | 69 | 192 | 0.0 | 0.0 | 0.00 | 0.00 | 0.00 | 53 | 1014.0 |
| 20260905044511 | 69 | 170 | 0.0 | 0.0 | 0.00 | 0.00 | 0.00 | 53 | 1014.0 |
| 20260905044011 | 69 | 179 | 0.0 | 0.0 | 0.00 | 0.00 | 0.00 | 53 | 1014.0 |
| 20260905043512 | 69 | 158 | 0.0 | 0.0 | 0.00 | 0.00 | 0.00 | 52 | 1014.0 |
| 20260905042530 | 69 | 176 | 0.0 | 0.0 | 0.00 | 0.00 | 0.00 | 52 | 1014.0 |
| 20260905042011 | 69 | 188 | 0.0 | 0.0 | 0.00 | 0.00 | 0.00 | 52 | 1013.0 |
| 20260905041514 | 69 | 175 | 0.0 | 0.0 | 0.00 | 0.00 | 0.00 | 51 | 1013.0 |
| 20260905041013 | 69 | 174 | 0.0 | 0.0 | 0.00 | 0.00 | 0.00 | 51 | 1013.0 |
| 20260905040012 | 69 | 210 | 0.0 | 0.0 | 0.00 | 0.00 | 0.00 | 51 | 1013.0 |
| 20260905035012 | 69 | 186 | 0.0 | 0.0 | 0.00 | 0.00 | 0.00 | 50 | 1014.0 |
| 20260905034508 | 69 | 158 | 0.0 | 0.0 | 0.00 | 0.00 | 0.00 | 50 | 1014.0 |
| 20260905034009 | 69 | 172 | 0.0 | 0.0 | 0.00 | 0.00 | 0.00 | 49 | 1014.0 |
| 20260905033516 | 70 | 167 | 0.0 | 0.0 | 0.00 | 0.00 | 0.00 | 49 | 1014.0 |
| 20260905033009 | 70 | 172 | 0.0 | 0.0 | 0.00 | 0.00 | 0.00 | 48 | 1014.0 |
| 20260905032507 | 70 | 189 | 0.0 | 0.0 | 0.00 | 0.00 | 0.00 | 48 | 1014.0 |
| 20260905032008 | 70 | 202 | 0.0 | 0.0 | 0.00 | 0.00 | 0.00 | 48 | 1014.0 |
| 20260905031511 | 70 | 248 | 0.0 | 0.0 | 0.00 | 0.00 | 0.00 | 47 | 1014.0 |
| 20260905031014 | 71 | 206 | 0.0 | 0.0 | 0.00 | 0.00 | 0.00 | 47 | 1014.0 |
| 20260905030014 | 71 | 172 | 0.0 | 0.0 | 0.00 | 0.00 | 0.00 | 47 | 1014.0 |
| 20260905025514 | 71 | 169 | 0.0 | 0.0 | 0.00 | 0.00 | 0.00 | 47 | 1014.0 |
| 20260905025017 | 71 | 181 | 0.0 | 0.0 | 0.00 | 0.00 | 0.00 | 47 | 1014.0 |
| 20260905024510 | 71 | 169 | 0.0 | 0.0 | 0.00 | 0.00 | 0.00 | 47 | 1014.0 |
| 20260905024009 | 71 | 220 | 0.0 | 0.0 | 0.00 | 0.00 | 0.00 | 47 | 1014.0 |
| 20260905023517 | 71 | 170 | 0.0 | 0.0 | 0.00 | 0.00 | 0.00 | 47 | 1014.0 |
| 20260905023012 | 72 | 180 | 0.0 | 0.0 | 0.00 | 0.00 | 0.00 | 46 | 1014.0 |
| 20260905022515 | 72 | 162 | 0.0 | 0.0 | 0.00 | 0.00 | 0.00 | 46 | 1014.0 |
| 20260905022015 | 72 | 188 | 0.0 | 0.0 | 0.00 | 0.00 | 0.00 | 46 | 1014.0 |
| 20260905021514 | 72 | 185 | 0.0 | 0.0 | 0.00 | 0.00 | 0.00 | 46 | 1014.0 |
| 20260905021014 | 72 | 200 | 0.0 | 0.0 | 0.00 | 0.00 | 0.00 | 46 | 1014.0 |
| 20260905020009 | 72 | 167 | 0.0 | 0.0 | 0.00 | 0.00 | 0.00 | 46 | 1014.0 |
| 20260905015510 | 72 | 183 | 0.0 | 0.0 | 0.00 | 0.00 | 0.00 | 46 | 1014.0 |
| 20260905015015 | 72 | 178 | 0.0 | 0.0 | 0.00 | 0.00 | 0.00 | 46 | 1014.0 |
| 20260905014013 | 72 | 224 | 0.0 | 0.0 | 0.00 | 0.00 | 0.00 | 46 | 1014.0 |
| 20260905013511 | 72 | 158 | 0.0 | 0.0 | 0.00 | 0.00 | 0.00 | 46 | 1014.0 |
| 20260905013013 | 72 | 158 | 0.0 | 0.0 | 0.00 | 0.00 | 0.00 | 46 | 1014.0 |
| 20260905012011 | 72 | 201 | 0.0 | 0.0 | 0.00 | 0.00 | 0.00 | 46 | 1014.0 |
| 20260905011013 | 72 | 171 | 0.0 | 0.0 | 0.00 | 0.00 | 0.00 | 46 | 1014.0 |
| 20260905010012 | 72 | 197 | 0.0 | 0.0 | 0.00 | 0.00 | 0.00 | 46 | 1015.0 |
| 20260905005510 | 71 | 181 | 0.0 | 0.0 | 0.00 | 0.00 | 0.00 | 47 | 1015.0 |
| 20260905005015 | 71 | 176 | 0.0 | 0.0 | 0.00 | 0.00 | 0.00 | 47 | 1014.0 |
| 20260905004013 | 71 | 185 | 0.0 | 0.0 | 0.00 | 0.00 | 0.00 | 47 | 1014.0 |
| 20260905003514 | 71 | 175 | 0.0 | 0.0 | 0.00 | 0.00 | 0.00 | 47 | 1014.0 |
| 20260905003019 | 71 | 177 | 0.0 | 0.0 | 0.00 | 0.00 | 0.00 | 47 | 1014.0 |